createdAt,value
2019-04-14T00:00:03.528Z,36.70
2019-04-14T00:01:04.332Z,35.90
2019-04-14T00:02:03.465Z,39.70
2019-04-14T00:03:04.433Z,41.40
2019-04-14T00:04:03.457Z,40.30
2019-04-14T00:05:03.991Z,40.80
2019-04-14T00:06:04.705Z,41.90
2019-04-14T00:07:03.738Z,41.90
2019-04-14T00:08:04.539Z,40.60
2019-04-14T00:09:03.392Z,37.90
2019-04-14T00:10:03.382Z,39.70
2019-04-14T00:11:04.013Z,39.70
2019-04-14T00:12:06.242Z,37.40
2019-04-14T00:13:04.521Z,37.80
2019-04-14T00:14:03.335Z,35.90
2019-04-14T00:15:04.377Z,37.20
2019-04-14T00:16:03.318Z,36.80
2019-04-14T00:17:04.224Z,37.80
2019-04-14T00:18:03.288Z,34.20
2019-04-14T00:19:04.375Z,35.30
2019-04-14T00:20:03.281Z,35.00
2019-04-14T00:21:04.349Z,35.20
2019-04-14T00:22:03.381Z,35.30
2019-04-14T00:23:04.378Z,34.80
2019-04-14T00:24:03.222Z,35.10
2019-04-14T00:25:04.359Z,35.20
2019-04-14T00:26:03.232Z,35.20
2019-04-14T00:27:04.215Z,34.70
2019-04-14T00:28:03.177Z,35.20
2019-04-14T00:29:04.463Z,34.70
2019-04-14T00:30:03.406Z,36.40
2019-04-14T00:31:04.428Z,34.70
2019-04-14T00:32:03.131Z,35.70
2019-04-14T00:33:04.155Z,35.30
2019-04-14T00:34:03.119Z,35.50
2019-04-14T00:35:03.896Z,34.80
2019-04-14T00:36:04.395Z,35.40
2019-04-14T00:37:03.420Z,35.40
2019-04-14T00:38:04.149Z,35.60
2019-04-14T00:39:03.195Z,35.10
2019-04-14T00:40:04.010Z,36.10
2019-04-14T00:41:03.042Z,37.50
2019-04-14T00:42:03.805Z,34.70
2019-04-14T00:43:03.027Z,36.60
2019-04-14T00:44:03.558Z,35.20
2019-04-14T00:45:02.995Z,36.90
2019-04-14T00:46:04.274Z,35.30
2019-04-14T00:47:02.973Z,38.60
2019-04-14T00:48:07.955Z,36.80
2019-04-14T00:49:04.981Z,34.10
2019-04-14T00:50:03.664Z,36.30
2019-04-14T00:51:02.944Z,35.20
2019-04-14T00:52:03.623Z,35.70
2019-04-14T00:53:03.470Z,35.50
2019-04-14T00:54:02.912Z,35.70
2019-04-14T00:55:03.298Z,36.00
2019-04-14T00:56:03.979Z,37.50
2019-04-14T00:57:03.177Z,36.20
2019-04-14T00:58:03.859Z,35.50
2019-04-14T00:59:02.862Z,34.60
2019-04-14T01:00:03.866Z,34.80
2019-04-14T01:01:02.834Z,35.70
2019-04-14T01:02:03.455Z,34.90
2019-04-14T01:03:02.792Z,35.70
2019-04-14T01:04:03.448Z,35.50
2019-04-14T01:05:02.768Z,34.40
2019-04-14T01:06:03.266Z,35.10
2019-04-14T01:07:02.761Z,35.60
2019-04-14T01:08:03.130Z,34.90
2019-04-14T01:09:02.754Z,34.70
2019-04-14T01:10:03.893Z,36.20
2019-04-14T01:11:03.071Z,35.90
2019-04-14T01:12:03.813Z,36.60
2019-04-14T01:13:02.809Z,35.50
2019-04-14T01:14:03.702Z,34.90
2019-04-14T01:15:03.070Z,36.20
2019-04-14T01:16:09.807Z,35.50
2019-04-14T01:17:04.705Z,36.50
2019-04-14T01:18:03.607Z,35.40
2019-04-14T01:19:02.691Z,37.40
2019-04-14T01:20:03.628Z,35.80
2019-04-14T01:21:02.614Z,34.30
2019-04-14T01:22:03.205Z,35.70
2019-04-14T01:23:02.595Z,37.10
2019-04-14T01:24:03.223Z,36.90
2019-04-14T01:25:02.580Z,36.20
2019-04-14T01:26:02.930Z,35.70
2019-04-14T01:27:03.820Z,36.80
2019-04-14T01:28:02.570Z,35.80
2019-04-14T01:29:03.616Z,35.90
2019-04-14T01:30:02.710Z,37.50
2019-04-14T01:31:03.351Z,35.80
2019-04-14T01:32:02.502Z,36.00
2019-04-14T01:33:03.260Z,36.30
2019-04-14T01:34:02.450Z,33.90
2019-04-14T01:35:03.163Z,36.70
2019-04-14T01:36:02.427Z,35.30
2019-04-14T01:37:02.980Z,36.50
2019-04-14T01:38:03.688Z,38.00
2019-04-14T01:39:02.560Z,35.20
2019-04-14T01:40:03.305Z,36.50
2019-04-14T01:41:02.379Z,36.40
2019-04-14T01:42:02.827Z,37.40
2019-04-14T01:43:02.404Z,37.70
2019-04-14T01:44:02.527Z,37.00
2019-04-14T01:45:03.535Z,36.80
2019-04-14T01:46:12.536Z,36.30
2019-04-14T01:47:03.306Z,37.30
2019-04-14T01:48:02.314Z,37.60
2019-04-14T01:49:02.871Z,39.30
2019-04-14T01:50:02.299Z,36.40
2019-04-14T01:51:02.677Z,37.10
2019-04-14T01:52:03.526Z,37.00
2019-04-14T01:53:03.215Z,35.50
2019-04-14T01:54:02.242Z,36.30
2019-04-14T01:55:02.869Z,37.60
2019-04-14T01:56:03.435Z,36.90
2019-04-14T01:57:02.495Z,36.50
2019-04-14T01:58:03.237Z,37.70
2019-04-14T01:59:02.239Z,36.00
2019-04-14T02:00:03.254Z,36.50
2019-04-14T02:01:02.179Z,36.70
2019-04-14T02:02:02.992Z,36.20
2019-04-14T02:03:02.131Z,34.90
2019-04-14T02:04:02.933Z,39.30
2019-04-14T02:05:02.116Z,37.70
2019-04-14T02:06:02.593Z,35.90
2019-04-14T02:07:02.105Z,36.90
2019-04-14T02:08:02.376Z,36.40
2019-04-14T02:09:03.204Z,35.60
2019-04-14T02:10:02.080Z,35.80
2019-04-14T02:11:02.985Z,34.80
2019-04-14T02:12:02.033Z,36.20
2019-04-14T02:13:02.827Z,35.70
2019-04-14T02:14:02.009Z,37.30
2019-04-14T02:15:02.838Z,37.10
2019-04-14T02:16:15.170Z,37.30
2019-04-14T02:17:04.454Z,36.90
2019-04-14T02:18:03.127Z,36.70
2019-04-14T02:19:02.455Z,36.50
2019-04-14T02:20:03.205Z,36.00
2019-04-14T02:21:02.165Z,36.80
2019-04-14T02:22:02.732Z,36.70
2019-04-14T02:23:01.936Z,35.80
2019-04-14T02:24:02.554Z,36.70
2019-04-14T02:25:01.917Z,36.90
2019-04-14T02:26:02.259Z,36.40
2019-04-14T02:27:01.884Z,35.30
2019-04-14T02:28:02.281Z,37.20
2019-04-14T02:29:01.851Z,34.30
2019-04-14T02:30:04.061Z,38.70
2019-04-14T02:31:17.580Z,38.30
2019-04-14T02:33:36.323Z,36.40
2019-04-14T02:34:34.333Z,37.30
2019-04-14T02:35:28.511Z,36.40
2019-04-14T02:37:26.072Z,39.20
2019-04-14T02:38:45.402Z,36.40
2019-04-14T02:39:36.434Z,37.00
2019-04-14T02:40:40.993Z,37.90
2019-04-14T02:41:35.962Z,38.60
2019-04-14T02:42:36.492Z,37.40
2019-04-14T02:43:38.003Z,37.70
2019-04-14T02:44:30.508Z,36.80
2019-04-14T02:45:40.205Z,36.50
2019-04-14T02:46:32.288Z,36.60
2019-04-14T02:47:45.074Z,38.00
2019-04-14T02:49:44.133Z,39.20
2019-04-14T02:50:26.297Z,35.90
2019-04-14T02:51:26.851Z,36.40
2019-04-14T02:52:30.404Z,36.00
2019-04-14T02:53:32.551Z,35.50
2019-04-14T02:54:41.675Z,38.10
2019-04-14T02:55:21.615Z,36.80
2019-04-14T02:56:34.325Z,35.90
2019-04-14T02:57:30.464Z,36.50
2019-04-14T02:59:32.046Z,36.20
2019-04-14T03:00:39.177Z,36.30
2019-04-14T03:01:29.554Z,36.50
2019-04-14T03:02:30.733Z,36.90
2019-04-14T03:04:27.667Z,36.40
2019-04-14T03:05:28.058Z,36.50
2019-04-14T03:06:26.066Z,37.60
2019-04-14T03:07:32.290Z,37.60
2019-04-14T03:08:36.370Z,37.60
2019-04-14T03:09:38.217Z,38.10
2019-04-14T03:10:40.503Z,36.90
2019-04-14T03:13:28.903Z,37.50
2019-04-14T03:14:31.192Z,37.90
2019-04-14T03:15:35.166Z,39.20
2019-04-14T03:16:29.733Z,37.30
2019-04-14T03:19:35.418Z,39.10
2019-04-14T03:20:27.980Z,39.20
2019-04-14T03:21:30.653Z,38.50
2019-04-14T03:23:34.841Z,38.40
2019-04-14T03:24:30.704Z,37.30
2019-04-14T03:25:21.204Z,37.10
2019-04-14T03:26:29.701Z,38.90
2019-04-14T03:27:31.259Z,39.80
2019-04-14T03:28:34.637Z,37.80
2019-04-14T03:29:31.746Z,38.00
2019-04-14T03:31:52.011Z,37.60
2019-04-14T03:33:05.322Z,38.60
2019-04-14T03:33:52.439Z,38.70
2019-04-14T03:36:11.104Z,38.90
2019-04-14T03:37:21.918Z,39.70
2019-04-14T03:38:50.431Z,39.90
2019-04-14T03:39:33.539Z,41.70
2019-04-14T03:40:34.034Z,41.40
2019-04-14T03:42:36.962Z,41.10
2019-04-14T03:43:39.469Z,41.50
2019-04-14T03:44:37.512Z,41.60
2019-04-14T03:45:36.462Z,38.30
2019-04-14T03:47:45.293Z,40.50
2019-04-14T03:49:32.113Z,42.60
2019-04-14T03:50:28.894Z,40.60
2019-04-14T03:52:31.631Z,40.60
2019-04-14T03:54:20.206Z,40.70
2019-04-14T03:55:16.357Z,41.60
2019-04-14T03:56:06.902Z,42.10
2019-04-14T03:57:01.926Z,48.50
2019-04-14T03:58:00.877Z,48.80
2019-04-14T03:59:01.873Z,47.40
2019-04-14T04:00:00.865Z,45.90
2019-04-14T04:01:01.878Z,44.10
2019-04-14T04:02:00.989Z,47.20
2019-04-14T04:03:01.991Z,45.60
2019-04-14T04:04:00.808Z,47.20
2019-04-14T04:05:02.112Z,43.40
2019-04-14T04:06:00.850Z,47.20
2019-04-14T04:07:01.854Z,48.60
2019-04-14T04:08:00.771Z,46.20
2019-04-14T04:09:01.812Z,47.70
2019-04-14T04:10:00.754Z,46.80
2019-04-14T04:11:01.886Z,48.70
2019-04-14T04:12:00.739Z,50.00
2019-04-14T04:13:01.911Z,48.50
2019-04-14T04:14:00.718Z,50.90
2019-04-14T04:15:01.841Z,48.00
2019-04-14T04:16:00.698Z,47.60
2019-04-14T04:17:01.576Z,45.10
2019-04-14T04:18:00.672Z,47.70
2019-04-14T04:19:07.385Z,47.00
2019-04-14T04:20:02.558Z,46.90
2019-04-14T04:21:00.910Z,46.40
2019-04-14T04:22:00.616Z,46.60
2019-04-14T04:23:00.864Z,49.60
2019-04-14T04:24:00.604Z,46.40
2019-04-14T04:25:00.814Z,49.30
2019-04-14T04:26:01.752Z,47.60
2019-04-14T04:27:00.568Z,50.30
2019-04-14T04:28:01.598Z,49.90
2019-04-14T04:29:00.593Z,47.30
2019-04-14T04:30:01.657Z,46.00
2019-04-14T04:31:00.534Z,47.40
2019-04-14T04:32:01.391Z,47.30
2019-04-14T04:33:00.490Z,46.80
2019-04-14T04:34:01.038Z,47.60
2019-04-14T04:35:00.497Z,47.50
2019-04-14T04:36:01.104Z,49.90
2019-04-14T04:37:01.721Z,46.50
2019-04-14T04:38:00.893Z,48.30
2019-04-14T04:39:01.700Z,47.70
2019-04-14T04:40:00.665Z,46.50
2019-04-14T04:41:01.502Z,46.10
2019-04-14T04:42:00.502Z,47.10
2019-04-14T04:43:01.253Z,47.20
2019-04-14T04:44:00.742Z,47.40
2019-04-14T04:45:01.679Z,45.70
2019-04-14T04:46:00.627Z,45.60
2019-04-14T04:47:01.228Z,47.70
2019-04-14T04:48:00.372Z,47.20
2019-04-14T04:49:09.898Z,46.10
2019-04-14T04:50:02.395Z,46.50
2019-04-14T04:51:00.651Z,45.50
2019-04-14T04:52:00.281Z,47.60
2019-04-14T04:53:00.505Z,45.70
2019-04-14T04:54:00.289Z,46.60
2019-04-14T04:55:00.273Z,46.10
2019-04-14T04:56:01.422Z,47.80
2019-04-14T04:57:00.239Z,45.80
2019-04-14T04:58:01.362Z,46.20
2019-04-14T04:59:01.095Z,45.90
2019-04-14T05:00:00.617Z,47.30
2019-04-14T05:01:01.321Z,46.00
2019-04-14T05:02:00.444Z,45.00
2019-04-14T05:03:01.234Z,45.10
2019-04-14T05:04:00.362Z,46.70
2019-04-14T05:05:01.223Z,44.20
2019-04-14T05:06:00.384Z,43.60
2019-04-14T05:07:01.322Z,44.70
2019-04-14T05:08:00.120Z,46.00
2019-04-14T05:09:01.245Z,44.70
2019-04-14T05:10:00.271Z,43.30
2019-04-14T05:11:01.115Z,46.00
2019-04-14T05:12:00.316Z,45.50
2019-04-14T05:13:00.751Z,46.00
2019-04-14T05:14:00.126Z,45.40
2019-04-14T05:15:01.005Z,44.90
2019-04-14T05:16:00.032Z,44.00
2019-04-14T05:17:00.016Z,43.90
2019-04-14T05:18:00.466Z,44.20
2019-04-14T05:19:12.220Z,43.00
2019-04-14T05:20:00.986Z,43.70
2019-04-14T05:20:59.957Z,42.70
2019-04-14T05:22:00.695Z,42.50
2019-04-14T05:22:59.951Z,41.90
2019-04-14T05:24:00.662Z,44.20
2019-04-14T05:24:59.920Z,42.10
2019-04-14T05:26:00.556Z,43.70
2019-04-14T05:26:59.918Z,42.80
2019-04-14T05:28:00.441Z,42.20
2019-04-14T05:28:59.957Z,39.80
2019-04-14T05:30:00.410Z,42.10
2019-04-14T05:31:01.094Z,41.30
2019-04-14T05:32:00.122Z,40.20
2019-04-14T05:33:00.905Z,38.80
2019-04-14T05:34:00.004Z,40.00
2019-04-14T05:35:00.863Z,39.40
2019-04-14T05:35:59.922Z,39.90
2019-04-14T05:37:00.662Z,38.10
2019-04-14T05:37:59.779Z,39.80
2019-04-14T05:39:00.287Z,40.50
2019-04-14T05:39:59.744Z,39.70
2019-04-14T05:41:00.435Z,39.50
2019-04-14T05:42:07.693Z,38.70
2019-04-14T05:43:00.714Z,40.00
2019-04-14T05:44:01.527Z,39.80
2019-04-14T05:45:00.036Z,40.00
2019-04-14T05:45:59.691Z,40.90
2019-04-14T05:47:00.066Z,39.00
2019-04-14T05:48:00.980Z,39.50
2019-04-14T05:48:59.932Z,39.50
2019-04-14T05:50:00.794Z,39.10
2019-04-14T05:50:59.882Z,38.30
2019-04-14T05:51:59.616Z,39.60
2019-04-14T05:53:00.020Z,39.20
2019-04-14T05:53:59.605Z,39.90
2019-04-14T05:55:00.066Z,40.20
2019-04-14T05:55:59.571Z,40.40
2019-04-14T05:57:00.105Z,38.70
2019-04-14T05:57:59.556Z,39.10
2019-04-14T05:59:00.119Z,37.80
2019-04-14T05:59:59.556Z,37.90
2019-04-14T06:01:00.323Z,38.00
2019-04-14T06:01:59.505Z,39.50
2019-04-14T06:02:59.564Z,38.00
2019-04-14T06:04:00.353Z,38.40
2019-04-14T06:04:59.479Z,36.80
2019-04-14T06:05:59.519Z,38.20
2019-04-14T06:06:59.442Z,38.70
2019-04-14T06:07:59.440Z,36.90
2019-04-14T06:08:59.422Z,37.30
2019-04-14T06:09:59.405Z,36.40
2019-04-14T06:10:59.395Z,36.20
2019-04-14T06:11:59.414Z,35.70
2019-04-14T06:12:59.385Z,36.60
2019-04-14T06:13:59.363Z,35.60
2019-04-14T06:14:59.355Z,36.40
2019-04-14T06:15:59.349Z,36.70
2019-04-14T06:16:59.338Z,37.10
2019-04-14T06:17:59.348Z,36.40
2019-04-14T06:18:59.318Z,37.10
2019-04-14T06:19:59.295Z,36.00
2019-04-14T06:20:59.288Z,35.70
2019-04-14T06:21:59.288Z,35.10
2019-04-14T06:22:59.261Z,34.30
2019-04-14T06:23:59.289Z,34.80
2019-04-14T06:24:59.245Z,35.70
2019-04-14T06:25:59.245Z,36.00
2019-04-14T06:26:59.219Z,36.50
2019-04-14T06:27:59.206Z,35.30
2019-04-14T06:28:59.229Z,34.70
2019-04-14T06:29:59.206Z,34.90
2019-04-14T06:30:59.176Z,34.70
2019-04-14T06:31:59.185Z,34.20
2019-04-14T06:32:59.157Z,34.90
2019-04-14T06:33:59.152Z,36.00
2019-04-14T06:34:59.132Z,36.40
2019-04-14T06:35:59.152Z,34.10
2019-04-14T06:36:59.107Z,36.00
2019-04-14T06:37:59.100Z,34.50
2019-04-14T06:38:59.084Z,35.00
2019-04-14T06:39:59.075Z,35.30
2019-04-14T06:40:59.063Z,43.70
2019-04-14T06:41:59.067Z,33.80
2019-04-14T06:42:59.051Z,32.10
2019-04-14T06:43:59.029Z,31.90
2019-04-14T06:44:59.023Z,32.90
2019-04-14T06:45:59.018Z,32.70
2019-04-14T06:46:59.017Z,31.20
2019-04-14T06:47:59.000Z,31.50
2019-04-14T06:48:58.973Z,31.90
2019-04-14T06:49:58.969Z,34.10
2019-04-14T06:50:58.972Z,31.90
2019-04-14T06:51:58.975Z,32.10
2019-04-14T06:52:58.930Z,32.90
2019-04-14T06:53:58.951Z,31.60
2019-04-14T06:54:58.910Z,32.40
2019-04-14T06:55:58.901Z,32.70
2019-04-14T06:56:58.894Z,31.00
2019-04-14T06:57:58.877Z,32.20
2019-04-14T06:58:58.863Z,32.70
2019-04-14T06:59:58.881Z,30.00
2019-04-14T07:00:58.843Z,30.20
2019-04-14T07:01:59.361Z,30.50
2019-04-14T07:02:58.848Z,29.70
2019-04-14T07:03:58.824Z,31.50
2019-04-14T07:04:58.822Z,29.70
2019-04-14T07:06:00.218Z,29.00
2019-04-14T07:06:58.787Z,28.90
2019-04-14T07:07:58.776Z,29.30
2019-04-14T07:08:58.759Z,27.60
2019-04-14T07:09:58.756Z,28.30
2019-04-14T07:10:58.740Z,29.60
2019-04-14T07:11:58.760Z,26.10
2019-04-14T07:12:58.717Z,28.50
2019-04-14T07:13:58.706Z,27.40
2019-04-14T07:14:58.698Z,25.90
2019-04-14T07:15:58.685Z,26.90
2019-04-14T07:16:58.680Z,26.30
2019-04-14T07:17:58.681Z,26.70
2019-04-14T07:18:58.646Z,26.80
2019-04-14T07:20:02.229Z,27.80
2019-04-14T07:20:58.637Z,27.10
2019-04-14T07:21:58.611Z,26.30
2019-04-14T07:22:58.607Z,25.10
2019-04-14T07:23:58.620Z,26.50
2019-04-14T07:24:58.582Z,24.10
2019-04-14T07:25:58.564Z,26.50
2019-04-14T07:26:58.556Z,26.10
2019-04-14T07:27:58.541Z,26.20
2019-04-14T07:28:58.532Z,25.40
2019-04-14T07:29:58.549Z,25.30
2019-04-14T07:30:58.512Z,25.80
2019-04-14T07:31:58.524Z,25.60
2019-04-14T07:32:58.534Z,26.00
2019-04-14T07:33:58.483Z,24.70
2019-04-14T07:34:58.477Z,23.80
2019-04-14T07:35:58.471Z,24.00
2019-04-14T07:36:58.444Z,25.20
2019-04-14T07:37:58.446Z,25.60
2019-04-14T07:38:58.419Z,25.50
2019-04-14T07:39:58.411Z,24.80
2019-04-14T07:40:58.405Z,25.10
2019-04-14T07:41:58.421Z,25.20
2019-04-14T07:42:58.373Z,23.60
2019-04-14T07:43:58.368Z,23.40
2019-04-14T07:44:58.349Z,23.80
2019-04-14T07:45:58.345Z,22.80
2019-04-14T07:46:58.328Z,23.40
2019-04-14T07:47:58.339Z,23.90
2019-04-14T07:48:58.313Z,23.50
2019-04-14T07:49:58.297Z,23.30
2019-04-14T07:50:58.292Z,23.10
2019-04-14T07:51:58.271Z,23.20
2019-04-14T07:52:58.256Z,23.00
2019-04-14T07:53:58.283Z,22.10
2019-04-14T07:54:58.237Z,22.20
2019-04-14T07:55:58.255Z,23.00
2019-04-14T07:56:58.211Z,22.30
2019-04-14T07:57:58.203Z,22.20
2019-04-14T07:58:58.183Z,22.30
2019-04-14T07:59:58.189Z,22.40
2019-04-14T08:00:58.163Z,23.10
2019-04-14T08:01:58.151Z,22.60
2019-04-14T08:02:58.148Z,21.70
2019-04-14T08:03:58.127Z,22.00
2019-04-14T08:04:58.121Z,22.90
2019-04-14T08:05:58.163Z,23.40
2019-04-14T08:06:58.095Z,21.80
2019-04-14T08:07:58.090Z,22.40
2019-04-14T08:08:58.084Z,21.30
2019-04-14T08:09:58.066Z,22.40
2019-04-14T08:10:58.046Z,22.30
2019-04-14T08:11:58.071Z,22.30
2019-04-14T08:12:58.030Z,21.50
2019-04-14T08:13:58.023Z,22.10
2019-04-14T08:14:58.004Z,21.90
2019-04-14T08:15:57.994Z,22.30
2019-04-14T08:16:57.996Z,22.00
2019-04-14T08:17:57.998Z,21.90
2019-04-14T08:18:57.962Z,22.30
2019-04-14T08:19:57.957Z,21.50
2019-04-14T08:20:57.937Z,22.80
2019-04-14T08:21:57.931Z,22.00
2019-04-14T08:22:58.099Z,21.80
2019-04-14T08:23:57.919Z,21.40
2019-04-14T08:24:57.902Z,20.30
2019-04-14T08:25:57.883Z,20.70
2019-04-14T08:26:57.868Z,20.70
2019-04-14T08:27:57.872Z,20.90
2019-04-14T08:28:57.851Z,20.30
2019-04-14T08:29:57.858Z,22.10
2019-04-14T08:30:57.824Z,20.30
2019-04-14T08:31:57.832Z,18.90
2019-04-14T08:32:57.797Z,20.90
2019-04-14T08:33:57.786Z,20.40
2019-04-14T08:34:57.778Z,20.00
2019-04-14T08:35:57.783Z,19.20
2019-04-14T08:36:57.765Z,18.60
2019-04-14T08:37:57.761Z,19.30
2019-04-14T08:38:57.735Z,19.40
2019-04-14T08:39:57.727Z,19.50
2019-04-14T08:40:57.710Z,19.10
2019-04-14T08:41:57.729Z,19.40
2019-04-14T08:42:57.691Z,20.20
2019-04-14T08:43:57.676Z,19.30
2019-04-14T08:44:57.665Z,18.70
2019-04-14T08:45:57.652Z,19.90
2019-04-14T08:46:57.645Z,19.10
2019-04-14T08:47:57.650Z,19.90
2019-04-14T08:48:57.623Z,19.30
2019-04-14T08:49:57.637Z,19.20
2019-04-14T08:50:57.604Z,19.20
2019-04-14T08:51:57.585Z,19.10
2019-04-14T08:52:57.596Z,18.90
2019-04-14T08:53:57.580Z,19.10
2019-04-14T08:54:57.549Z,19.00
2019-04-14T08:55:57.542Z,19.10
2019-04-14T08:56:57.527Z,19.00
2019-04-14T08:57:57.517Z,19.10
2019-04-14T08:58:57.514Z,19.00
2019-04-14T08:59:57.531Z,18.50
2019-04-14T09:00:57.485Z,18.70
2019-04-14T09:01:57.488Z,19.20
2019-04-14T09:02:57.461Z,19.10
2019-04-14T09:03:57.451Z,19.00
2019-04-14T09:04:57.438Z,19.80
2019-04-14T09:05:57.457Z,18.30
2019-04-14T09:06:57.429Z,18.80
2019-04-14T09:07:57.411Z,19.30
2019-04-14T09:08:57.392Z,18.80
2019-04-14T09:09:57.405Z,18.30
2019-04-14T09:10:57.373Z,18.60
2019-04-14T09:11:57.381Z,18.10
2019-04-14T09:12:57.352Z,17.90
2019-04-14T09:13:57.344Z,18.30
2019-04-14T09:14:57.784Z,18.00
2019-04-14T09:15:57.337Z,18.60
2019-04-14T09:16:57.308Z,17.80
2019-04-14T09:17:57.322Z,17.60
2019-04-14T09:19:07.133Z,18.00
2019-04-14T09:19:58.272Z,17.20
2019-04-14T09:20:57.262Z,17.80
2019-04-14T09:21:57.256Z,16.60
2019-04-14T09:22:57.238Z,17.30
2019-04-14T09:23:57.251Z,17.40
2019-04-14T09:24:57.221Z,17.00
2019-04-14T09:25:57.209Z,17.40
2019-04-14T09:26:57.196Z,16.90
2019-04-14T09:27:57.184Z,17.50
2019-04-14T09:28:57.191Z,17.20
2019-04-14T09:29:57.183Z,17.30
2019-04-14T09:30:57.153Z,16.50
2019-04-14T09:31:57.145Z,17.20
2019-04-14T09:32:57.131Z,17.50
2019-04-14T09:33:57.118Z,17.50
2019-04-14T09:34:57.110Z,17.50
2019-04-14T09:35:57.120Z,17.00
2019-04-14T09:36:57.090Z,17.40
2019-04-14T09:37:57.091Z,16.90
2019-04-14T09:38:57.114Z,16.80
2019-04-14T09:39:57.050Z,17.30
2019-04-14T09:40:57.083Z,16.40
2019-04-14T09:41:57.058Z,17.10
2019-04-14T09:42:57.825Z,16.80
2019-04-14T09:43:57.007Z,16.90
2019-04-14T09:44:56.998Z,17.30
2019-04-14T09:45:56.986Z,17.00
2019-04-14T09:46:56.975Z,17.00
2019-04-14T09:47:56.990Z,17.40
2019-04-14T09:48:56.950Z,17.50
2019-04-14T09:49:56.942Z,16.40
2019-04-14T09:51:04.839Z,16.80
2019-04-14T09:51:57.926Z,16.10
2019-04-14T09:52:56.922Z,16.40
2019-04-14T09:53:56.936Z,16.90
2019-04-14T09:54:56.899Z,17.10
2019-04-14T09:55:56.878Z,16.50
2019-04-14T09:56:56.865Z,17.80
2019-04-14T09:57:56.861Z,17.80
2019-04-14T09:58:56.846Z,18.00
2019-04-14T09:59:57.183Z,18.60
2019-04-14T10:00:56.830Z,17.40
2019-04-14T10:01:56.826Z,18.40
2019-04-14T10:02:56.804Z,18.50
2019-04-14T10:03:56.789Z,20.80
2019-04-14T10:04:56.785Z,19.90
2019-04-14T10:05:56.794Z,18.40
2019-04-14T10:06:56.778Z,18.60
2019-04-14T10:07:56.746Z,18.20
2019-04-14T10:08:56.740Z,18.20
2019-04-14T10:09:56.733Z,18.30
2019-04-14T10:10:56.712Z,18.20
2019-04-14T10:11:56.720Z,18.40
2019-04-14T10:12:56.696Z,17.60
2019-04-14T10:13:56.680Z,18.30
2019-04-14T10:14:56.669Z,17.90
2019-04-14T10:15:56.661Z,18.40
2019-04-14T10:16:56.674Z,20.40
2019-04-14T10:17:56.665Z,20.30
2019-04-14T10:18:56.630Z,19.90
2019-04-14T10:19:56.614Z,18.80
2019-04-14T10:20:56.603Z,19.00
2019-04-14T10:21:56.593Z,19.20
2019-04-14T10:22:56.586Z,19.30
2019-04-14T10:23:56.600Z,18.40
2019-04-14T10:24:56.575Z,18.40
2019-04-14T10:25:56.551Z,18.00
2019-04-14T10:26:56.544Z,18.20
2019-04-14T10:27:56.534Z,16.80
2019-04-14T10:28:56.524Z,18.00
2019-04-14T10:29:56.535Z,16.90
2019-04-14T10:30:56.500Z,16.50
2019-04-14T10:31:56.516Z,17.70
2019-04-14T10:32:56.482Z,17.70
2019-04-14T10:33:56.471Z,18.10
2019-04-14T10:34:56.462Z,17.50
2019-04-14T10:35:56.473Z,17.60
2019-04-14T10:36:56.437Z,17.60
2019-04-14T10:37:56.421Z,17.10
2019-04-14T10:38:56.411Z,17.60
2019-04-14T10:39:56.416Z,17.10
2019-04-14T10:40:56.395Z,17.20
2019-04-14T10:41:56.399Z,18.10
2019-04-14T10:42:56.373Z,17.70
2019-04-14T10:43:56.360Z,17.20
2019-04-14T10:44:56.349Z,16.90
2019-04-14T10:45:56.336Z,16.90
2019-04-14T10:46:56.328Z,16.70
2019-04-14T10:47:56.342Z,17.10
2019-04-14T10:48:56.305Z,16.60
2019-04-14T10:49:56.297Z,16.30
2019-04-14T10:50:56.283Z,16.70
2019-04-14T10:51:56.269Z,16.50
2019-04-14T10:52:56.262Z,17.20
2019-04-14T10:53:56.277Z,16.60
2019-04-14T10:54:56.242Z,16.60
2019-04-14T10:55:56.226Z,16.90
2019-04-14T10:56:56.223Z,17.50
2019-04-14T10:57:56.206Z,16.60
2019-04-14T10:58:56.206Z,17.30
2019-04-14T10:59:56.247Z,16.60
2019-04-14T11:00:56.199Z,17.20
2019-04-14T11:01:56.172Z,17.20
2019-04-14T11:02:56.155Z,17.00
2019-04-14T11:03:56.142Z,16.80
2019-04-14T11:04:56.135Z,16.50
2019-04-14T11:05:56.139Z,17.50
2019-04-14T11:06:56.112Z,16.50
2019-04-14T11:07:56.097Z,17.30
2019-04-14T11:08:56.090Z,17.70
2019-04-14T11:09:56.082Z,16.70
2019-04-14T11:10:56.066Z,16.60
2019-04-14T11:11:56.105Z,17.60
2019-04-14T11:12:56.047Z,16.60
2019-04-14T11:13:56.085Z,16.30
2019-04-14T11:14:56.025Z,16.30
2019-04-14T11:15:56.022Z,15.80
2019-04-14T11:16:55.999Z,16.70
2019-04-14T11:17:56.016Z,15.80
2019-04-14T11:18:55.999Z,15.90
2019-04-14T11:19:55.965Z,17.60
2019-04-14T11:20:55.955Z,16.60
2019-04-14T11:21:55.947Z,17.40
2019-04-14T11:23:03.142Z,16.50
2019-04-14T11:23:56.943Z,16.70
2019-04-14T11:24:55.936Z,17.30
2019-04-14T11:25:55.903Z,16.60
2019-04-14T11:26:55.898Z,17.40
2019-04-14T11:27:55.880Z,16.30
2019-04-14T11:28:55.888Z,16.20
2019-04-14T11:29:55.881Z,16.20
2019-04-14T11:30:55.853Z,15.60
2019-04-14T11:31:55.836Z,16.10
2019-04-14T11:32:55.827Z,16.40
2019-04-14T11:33:55.813Z,16.50
2019-04-14T11:34:55.804Z,17.20
2019-04-14T11:35:55.810Z,15.70
2019-04-14T11:36:55.779Z,17.20
2019-04-14T11:37:55.772Z,16.30
2019-04-14T11:38:55.769Z,16.60
2019-04-14T11:39:55.766Z,15.00
2019-04-14T11:40:55.761Z,17.40
2019-04-14T11:41:55.746Z,15.90
2019-04-14T11:42:55.711Z,16.10
2019-04-14T11:43:55.731Z,15.60
2019-04-14T11:44:55.698Z,15.30
2019-04-14T11:45:55.678Z,16.00
2019-04-14T11:46:55.677Z,16.20
2019-04-14T11:47:55.683Z,16.10
2019-04-14T11:48:55.647Z,15.60
2019-04-14T11:49:55.630Z,16.10
2019-04-14T11:50:55.633Z,15.80
2019-04-14T11:51:55.930Z,16.00
2019-04-14T11:52:55.598Z,15.10
2019-04-14T11:53:55.607Z,15.90
2019-04-14T11:54:55.576Z,15.60
2019-04-14T11:55:55.568Z,15.20
2019-04-14T11:56:55.558Z,15.80
2019-04-14T11:57:55.545Z,15.20
2019-04-14T11:58:55.538Z,15.10
2019-04-14T11:59:55.539Z,15.30
2019-04-14T12:00:55.509Z,15.30
2019-04-14T12:01:55.501Z,15.30
2019-04-14T12:02:55.497Z,14.50
2019-04-14T12:03:55.497Z,14.60
2019-04-14T12:04:55.469Z,14.60
2019-04-14T12:05:55.477Z,14.80
2019-04-14T12:06:55.465Z,14.70
2019-04-14T12:07:55.432Z,15.20
2019-04-14T12:08:55.427Z,14.90
2019-04-14T12:09:55.414Z,14.50
2019-04-14T12:10:55.399Z,14.50
2019-04-14T12:11:55.419Z,14.70
2019-04-14T12:12:55.384Z,14.30
2019-04-14T12:13:55.366Z,14.50
2019-04-14T12:14:55.358Z,13.40
2019-04-14T12:15:55.344Z,14.50
2019-04-14T12:16:55.335Z,13.50
2019-04-14T12:17:55.368Z,13.70
2019-04-14T12:18:55.308Z,14.70
2019-04-14T12:19:55.299Z,13.90
2019-04-14T12:20:55.287Z,14.60
2019-04-14T12:22:07.440Z,14.30
2019-04-14T12:22:56.277Z,13.90
2019-04-14T12:23:55.251Z,13.60
2019-04-14T12:24:55.240Z,13.70
2019-04-14T12:26:05.117Z,13.30
2019-04-14T12:26:56.219Z,13.90
2019-04-14T12:27:55.790Z,13.80
2019-04-14T12:28:55.855Z,13.40
2019-04-14T12:29:55.188Z,13.10
2019-04-14T12:30:55.477Z,13.50
2019-04-14T12:31:55.304Z,13.00
2019-04-14T12:32:55.152Z,13.80
2019-04-14T12:33:55.140Z,13.40
2019-04-14T12:34:55.153Z,13.60
2019-04-14T12:35:55.122Z,13.70
2019-04-14T12:36:55.115Z,13.10
2019-04-14T12:37:55.099Z,13.70
2019-04-14T12:38:55.084Z,13.90
2019-04-14T12:39:55.073Z,14.10
2019-04-14T12:40:57.756Z,14.20
2019-04-14T12:41:55.050Z,14.70
2019-04-14T12:42:55.043Z,14.40
2019-04-14T12:43:55.027Z,13.50
2019-04-14T12:44:55.024Z,14.10
2019-04-14T12:45:55.008Z,13.10
2019-04-14T12:46:55.024Z,13.70
2019-04-14T12:47:54.983Z,13.60
2019-04-14T12:48:54.971Z,13.40
2019-04-14T12:49:54.968Z,13.00
2019-04-14T12:50:54.948Z,13.40
2019-04-14T12:51:54.935Z,13.70
2019-04-14T12:52:54.951Z,13.50
2019-04-14T12:53:54.911Z,12.70
2019-04-14T12:54:54.903Z,13.70
2019-04-14T12:55:54.913Z,13.70
2019-04-14T12:56:54.879Z,13.70
2019-04-14T12:57:54.866Z,13.30
2019-04-14T12:58:54.874Z,13.50
2019-04-14T12:59:54.844Z,13.50
2019-04-14T13:00:54.831Z,14.40
2019-04-14T13:01:54.819Z,13.60
2019-04-14T13:02:54.814Z,13.70
2019-04-14T13:03:54.796Z,12.90
2019-04-14T13:04:55.478Z,14.20
2019-04-14T13:05:54.776Z,13.70
2019-04-14T13:06:54.764Z,13.40
2019-04-14T13:07:54.747Z,13.50
2019-04-14T13:08:54.739Z,14.00
2019-04-14T13:09:54.742Z,14.00